Time;durP1;ratioP1;P1;durP2;ratioP2;P2;SDS_P1;SDS_P2;PMS_P1;PMS_P2;Temp;Humidity;BMP_temperature;BMP_pressure;BME280_temperature;BME280_humidity;BME280_pressure;Samples;Min_cycle;Max_cycle;Signal;HPM_P1;HPM_P2
2022/09/14 00:01:15;;;;;;;1.48;1.38;;;;;;;;;;5050608;28;20435;-65
2022/09/14 00:03:52;;;;;;;1.63;1.30;;;;;;;;;;5048436;28;20434;-65
2022/09/14 00:06:19;;;;;;;1.40;1.30;;;;;;;;;;5046320;28;20433;-65
2022/09/14 00:08:51;;;;;;;1.48;1.38;;;;;;;;;;5049697;28;20436;-65
2022/09/14 00:11:19;;;;;;;1.80;1.42;;;;;;;;;;5049262;28;20849;-65
2022/09/14 00:13:47;;;;;;;1.40;1.30;;;;;;;;;;5051742;28;20892;-65
2022/09/14 00:16:25;;;;;;;1.52;1.42;;;;;;;;;;5035805;28;20490;-65
2022/09/14 00:18:53;;;;;;;1.40;1.40;;;;;;;;;;5041303;28;20433;-64
2022/09/14 00:21:20;;;;;;;1.42;1.40;;;;;;;;;;5045656;28;20448;-64
2022/09/14 00:23:47;;;;;;;1.23;1.23;;;;;;;;;;5044124;28;20491;-65
2022/09/14 00:26:16;;;;;;;1.40;1.30;;;;;;;;;;5046032;28;20425;-65
2022/09/14 00:28:45;;;;;;;1.70;1.60;;;;;;;;;;5049067;28;20436;-66
2022/09/14 00:31:12;;;;;;;1.30;1.20;;;;;;;;;;5047675;28;21015;-69
2022/09/14 00:33:46;;;;;;;1.20;1.20;;;;;;;;;;5043378;28;20453;-67
2022/09/14 00:36:18;;;;;;;1.25;1.25;;;;;;;;;;5043830;28;20424;-67
2022/09/14 00:38:46;;;;;;;1.58;1.48;;;;;;;;;;5045308;28;20440;-67
2022/09/14 00:41:17;;;;;;;1.58;1.48;;;;;;;;;;5043843;28;20447;-67
2022/09/14 00:44:20;;;;;;;1.38;1.30;;;;;;;;;;5028173;28;20437;-68
2022/09/14 00:46:48;;;;;;;1.95;1.55;;;;;;;;;;4967760;28;20835;-67
2022/09/14 00:49:29;;;;;;;1.73;1.40;;;;;;;;;;5017600;28;20472;-67
2022/09/14 00:52:02;;;;;;;1.30;1.20;;;;;;;;;;5031620;28;20815;-68
2022/09/14 00:54:30;;;;;;;1.05;1.05;;;;;;;;;;5043359;28;20532;-67
2022/09/14 00:56:58;;;;;;;1.38;1.27;;;;;;;;;;5045451;28;20491;-67
2022/09/14 00:59:28;;;;;;;1.60;1.50;;;;;;;;;;5046969;28;20435;-69
2022/09/14 01:01:58;;;;;;;1.00;1.00;;;;;;;;;;5045276;28;20429;-71
2022/09/14 01:04:25;;;;;;;0.90;0.90;;;;;;;;;;5031286;28;20475;-70
2022/09/14 01:07:00;;;;;;;0.80;0.80;;;;;;;;;;5047762;28;20432;-71
2022/09/14 01:09:48;;;;;;;1.20;1.00;;;;;;;;;;5034496;28;20433;-70
2022/09/14 01:12:24;;;;;;;0.67;0.67;;;;;;;;;;5026640;28;20505;-71
2022/09/14 01:15:00;;;;;;;0.50;0.50;;;;;;;;;;5045644;28;20495;-71
2022/09/14 01:17:36;;;;;;;0.82;0.82;;;;;;;;;;5043145;28;20441;-72
2022/09/14 01:20:15;;;;;;;0.68;0.68;;;;;;;;;;5038144;28;20435;-71
2022/09/14 01:22:57;;;;;;;0.82;0.82;;;;;;;;;;5045920;28;20792;-71
2022/09/14 01:25:36;;;;;;;0.73;0.65;;;;;;;;;;5045230;28;20433;-71
2022/09/14 01:28:11;;;;;;;0.80;0.80;;;;;;;;;;5040697;28;20432;-71
2022/09/14 01:30:40;;;;;;;0.80;0.80;;;;;;;;;;5053100;28;20424;-71
2022/09/14 01:33:22;;;;;;;1.00;1.00;;;;;;;;;;5048568;28;20555;-73
2022/09/14 01:35:52;;;;;;;0.90;0.90;;;;;;;;;;5045279;28;20483;-72
2022/09/14 01:38:31;;;;;;;1.02;1.02;;;;;;;;;;5030784;28;20487;-73
2022/09/14 01:41:00;;;;;;;0.80;0.80;;;;;;;;;;5045543;28;20436;-73
2022/09/14 01:43:30;;;;;;;0.93;0.93;;;;;;;;;;5048138;28;20433;-74
2022/09/14 01:46:14;;;;;;;1.23;1.13;;;;;;;;;;5044312;28;20513;-74
2022/09/14 01:48:45;;;;;;;1.33;1.30;;;;;;;;;;5046115;28;20431;-73
2022/09/14 01:51:14;;;;;;;2.07;1.20;;;;;;;;;;5037511;28;20510;-74
2022/09/14 01:53:44;;;;;;;0.77;0.77;;;;;;;;;;5036993;28;20435;-74
2022/09/14 01:56:49;;;;;;;1.73;1.17;;;;;;;;;;5048896;28;20432;-74
2022/09/14 01:59:27;;;;;;;1.10;1.08;;;;;;;;;;5005223;28;20575;-75
2022/09/14 02:02:00;;;;;;;1.00;0.98;;;;;;;;;;5012021;28;20432;-75
2022/09/14 02:04:35;;;;;;;2.40;1.20;;;;;;;;;;4991913;28;20685;-76
2022/09/14 02:07:02;;;;;;;1.10;1.10;;;;;;;;;;5014508;28;20435;-75
2022/09/14 02:09:32;;;;;;;3.13;1.30;;;;;;;;;;5007776;28;20432;-76
2022/09/14 02:12:00;;;;;;;1.07;1.03;;;;;;;;;;4991203;28;20483;-75
2022/09/14 02:14:27;;;;;;;0.80;0.80;;;;;;;;;;5006610;28;20432;-75
2022/09/14 02:16:55;;;;;;;0.93;0.93;;;;;;;;;;5011416;28;20437;-75
2022/09/14 02:19:23;;;;;;;1.10;1.10;;;;;;;;;;4990052;28;20444;-75
2022/09/14 02:21:50;;;;;;;1.33;1.23;;;;;;;;;;5005787;28;20993;-75
2022/09/14 02:24:18;;;;;;;1.42;1.33;;;;;;;;;;5004637;28;20436;-75
2022/09/14 02:26:46;;;;;;;1.43;1.27;;;;;;;;;;5006681;28;20436;-74
2022/09/14 02:29:16;;;;;;;1.35;1.00;;;;;;;;;;5001159;28;20475;-75
2022/09/14 02:31:53;;;;;;;1.50;1.40;;;;;;;;;;5006464;28;20432;-74
2022/09/14 02:34:35;;;;;;;1.50;1.40;;;;;;;;;;5037515;28;20437;-74
2022/09/14 02:37:12;;;;;;;1.70;1.50;;;;;;;;;;5047050;28;20436;-75
2022/09/14 02:39:45;;;;;;;1.02;1.02;;;;;;;;;;5043813;28;20443;-74
2022/09/14 02:42:33;;;;;;;1.13;1.13;;;;;;;;;;5050890;28;20487;-74
2022/09/14 02:45:12;;;;;;;1.33;1.10;;;;;;;;;;5046612;28;22895;-74
2022/09/14 02:47:42;;;;;;;0.90;0.90;;;;;;;;;;5041243;28;20436;-75
2022/09/14 02:50:24;;;;;;;1.20;1.20;;;;;;;;;;5045876;28;20934;-76
2022/09/14 02:52:57;;;;;;;1.00;1.00;;;;;;;;;;5044599;28;20454;-74
2022/09/14 02:55:29;;;;;;;1.17;1.17;;;;;;;;;;5048447;28;20890;-75
2022/09/14 02:58:02;;;;;;;1.23;1.17;;;;;;;;;;5043272;28;20425;-75
2022/09/14 03:00:30;;;;;;;1.00;1.00;;;;;;;;;;5049162;28;20424;-75
2022/09/14 03:02:58;;;;;;;1.02;1.02;;;;;;;;;;5051177;28;20486;-75
2022/09/14 03:05:25;;;;;;;1.30;1.20;;;;;;;;;;5058057;28;20923;-76
2022/09/14 03:07:52;;;;;;;1.08;1.08;;;;;;;;;;5051007;28;20437;-75
2022/09/14 03:10:22;;;;;;;1.00;1.00;;;;;;;;;;5052529;28;20436;-75
2022/09/14 03:12:49;;;;;;;1.13;1.10;;;;;;;;;;5049107;28;20478;-76
2022/09/14 03:15:16;;;;;;;0.70;0.70;;;;;;;;;;5049300;28;20866;-75
2022/09/14 03:17:47;;;;;;;0.68;0.68;;;;;;;;;;5048242;28;20460;-76
2022/09/14 03:20:21;;;;;;;0.80;0.80;;;;;;;;;;5050562;28;20495;-75
2022/09/14 03:22:48;;;;;;;1.00;1.00;;;;;;;;;;5050439;28;20437;-75
2022/09/14 03:25:15;;;;;;;1.23;1.13;;;;;;;;;;5043262;28;20447;-76
2022/09/14 03:27:45;;;;;;;1.53;1.30;;;;;;;;;;5052504;28;20429;-82
2022/09/14 03:30:12;;;;;;;0.90;0.90;;;;;;;;;;5045980;28;20483;-83
2022/09/14 03:32:39;;;;;;;1.02;1.02;;;;;;;;;;5039406;28;20492;-83
2022/09/14 03:35:13;;;;;;;0.90;0.90;;;;;;;;;;5027874;28;20491;-84
2022/09/14 03:37:40;;;;;;;1.42;1.33;;;;;;;;;;5053407;28;20437;-84
2022/09/14 03:40:11;;;;;;;1.30;1.20;;;;;;;;;;5053651;28;20433;-83
2022/09/14 03:42:45;;;;;;;0.98;0.98;;;;;;;;;;5058851;28;20436;-83
2022/09/14 03:45:13;;;;;;;1.30;1.20;;;;;;;;;;5039636;28;20429;-82
2022/09/14 03:47:41;;;;;;;1.00;1.00;;;;;;;;;;5060283;28;20427;-82
2022/09/14 03:50:11;;;;;;;1.20;1.17;;;;;;;;;;5048310;28;20429;-81
2022/09/14 03:52:49;;;;;;;1.10;1.10;;;;;;;;;;5043457;28;20430;-81
2022/09/14 03:55:18;;;;;;;0.90;0.90;;;;;;;;;;5050656;28;20433;-81
2022/09/14 03:57:45;;;;;;;1.08;0.98;;;;;;;;;;5053649;28;20445;-82
2022/09/14 04:00:15;;;;;;;0.98;0.90;;;;;;;;;;5054138;28;20433;-81
2022/09/14 04:03:07;;;;;;;0.90;0.90;;;;;;;;;;5051547;28;20768;-79
2022/09/14 04:05:34;;;;;;;0.98;0.98;;;;;;;;;;5048762;28;20521;-79
2022/09/14 04:08:01;;;;;;;0.98;0.98;;;;;;;;;;5051113;28;20437;-79
2022/09/14 04:10:28;;;;;;;0.90;0.90;;;;;;;;;;5050162;28;20428;-80
2022/09/14 04:13:00;;;;;;;0.70;0.70;;;;;;;;;;5048137;28;20433;-79
2022/09/14 04:15:30;;;;;;;0.85;0.85;;;;;;;;;;5053416;28;20486;-78
2022/09/14 04:17:57;;;;;;;1.10;1.08;;;;;;;;;;5046560;28;20431;-78
2022/09/14 04:20:24;;;;;;;0.60;0.60;;;;;;;;;;5045680;28;20836;-78
2022/09/14 04:22:51;;;;;;;1.17;1.10;;;;;;;;;;5048027;28;20992;-77
2022/09/14 04:25:19;;;;;;;0.70;0.70;;;;;;;;;;5051698;28;20432;-77
2022/09/14 04:27:46;;;;;;;0.77;0.77;;;;;;;;;;5053168;28;20437;-77
2022/09/14 04:30:35;;;;;;;1.58;0.70;;;;;;;;;;5053517;28;20424;-76
2022/09/14 04:33:02;;;;;;;0.85;0.85;;;;;;;;;;5062208;28;20430;-77
2022/09/14 04:35:29;;;;;;;0.60;0.60;;;;;;;;;;5052406;28;20425;-77
2022/09/14 04:37:59;;;;;;;0.80;0.80;;;;;;;;;;5045701;28;20928;-77
2022/09/14 04:40:27;;;;;;;0.87;0.87;;;;;;;;;;5037999;28;20436;-76
2022/09/14 04:42:54;;;;;;;0.50;0.50;;;;;;;;;;5065217;28;20433;-76
2022/09/14 04:45:21;;;;;;;0.82;0.82;;;;;;;;;;5052471;28;20437;-77
2022/09/14 04:47:49;;;;;;;0.82;0.80;;;;;;;;;;5041402;28;20479;-76
2022/09/14 04:50:16;;;;;;;0.55;0.55;;;;;;;;;;5052076;28;20427;-77
2022/09/14 04:52:43;;;;;;;0.50;0.50;;;;;;;;;;5049335;28;20590;-77
2022/09/14 04:55:10;;;;;;;0.60;0.60;;;;;;;;;;5049527;28;20425;-76
2022/09/14 04:57:37;;;;;;;0.63;0.63;;;;;;;;;;5035697;28;20432;-76
2022/09/14 05:00:04;;;;;;;0.82;0.82;;;;;;;;;;5050020;28;20919;-77
2022/09/14 05:02:32;;;;;;;0.70;0.70;;;;;;;;;;5048779;28;20429;-76
2022/09/14 05:04:59;;;;;;;0.60;0.60;;;;;;;;;;5044928;28;20433;-77
2022/09/14 05:07:27;;;;;;;0.70;0.70;;;;;;;;;;5049036;28;20504;-76
2022/09/14 05:09:54;;;;;;;0.68;0.68;;;;;;;;;;5051138;28;20440;-76
2022/09/14 05:12:21;;;;;;;0.47;0.47;;;;;;;;;;5043987;28;20429;-76
2022/09/14 05:14:48;;;;;;;0.77;0.77;;;;;;;;;;5054220;28;20433;-76
2022/09/14 05:17:15;;;;;;;0.80;0.80;;;;;;;;;;5048785;28;20452;-75
2022/09/14 05:19:42;;;;;;;1.00;1.00;;;;;;;;;;5046376;28;20433;-75
2022/09/14 05:22:09;;;;;;;0.80;0.80;;;;;;;;;;5049554;28;20465;-76
2022/09/14 05:24:36;;;;;;;0.60;0.60;;;;;;;;;;5051945;28;20436;-75
2022/09/14 05:27:03;;;;;;;0.85;0.85;;;;;;;;;;5050261;28;20478;-75
2022/09/14 05:29:31;;;;;;;0.80;0.75;;;;;;;;;;5049921;28;20430;-75
2022/09/14 05:31:58;;;;;;;0.90;0.70;;;;;;;;;;5051167;28;20470;-75
2022/09/14 05:34:25;;;;;;;0.70;0.70;;;;;;;;;;5049598;28;20436;-74
2022/09/14 05:36:52;;;;;;;0.67;0.67;;;;;;;;;;5046397;28;20901;-75
2022/09/14 05:39:21;;;;;;;0.70;0.70;;;;;;;;;;5045838;28;21023;-74
2022/09/14 05:41:52;;;;;;;1.15;1.15;;;;;;;;;;5050636;28;20418;-74
2022/09/14 05:44:19;;;;;;;0.68;0.68;;;;;;;;;;5054727;28;20429;-74
2022/09/14 05:46:46;;;;;;;0.57;0.57;;;;;;;;;;5047511;28;21103;-74
2022/09/14 05:49:13;;;;;;;0.80;0.80;;;;;;;;;;5052081;28;20463;-74
2022/09/14 05:51:40;;;;;;;0.85;0.70;;;;;;;;;;5041338;28;21013;-74
2022/09/14 05:54:10;;;;;;;1.15;1.15;;;;;;;;;;5051295;28;20424;-74
2022/09/14 05:56:37;;;;;;;0.90;0.90;;;;;;;;;;5068820;28;20481;-74
2022/09/14 05:59:04;;;;;;;0.63;0.63;;;;;;;;;;5053792;28;20428;-74
2022/09/14 06:01:31;;;;;;;0.60;0.60;;;;;;;;;;5048501;28;20490;-74
2022/09/14 06:04:01;;;;;;;0.80;0.80;;;;;;;;;;5056681;28;20427;-74
2022/09/14 06:06:29;;;;;;;0.80;0.70;;;;;;;;;;5047227;28;21284;-74
2022/09/14 06:08:56;;;;;;;0.70;0.70;;;;;;;;;;5046177;28;20493;-74
2022/09/14 06:11:25;;;;;;;0.63;0.63;;;;;;;;;;5041453;28;20868;-74
2022/09/14 06:13:55;;;;;;;0.60;0.60;;;;;;;;;;5024365;28;20483;-74
2022/09/14 06:16:22;;;;;;;0.90;0.90;;;;;;;;;;5035197;28;20441;-73
2022/09/14 06:18:50;;;;;;;0.80;0.80;;;;;;;;;;5038459;28;20488;-74
2022/09/14 06:21:18;;;;;;;0.68;0.68;;;;;;;;;;5037996;28;20441;-74
2022/09/14 06:23:46;;;;;;;0.80;0.80;;;;;;;;;;5044546;28;20441;-73
2022/09/14 06:26:14;;;;;;;0.80;0.80;;;;;;;;;;5043594;28;20435;-73
2022/09/14 06:28:41;;;;;;;0.63;0.63;;;;;;;;;;5037669;28;20440;-73
2022/09/14 06:31:10;;;;;;;0.60;0.60;;;;;;;;;;5047538;28;20429;-73
2022/09/14 06:33:37;;;;;;;0.60;0.60;;;;;;;;;;5043785;28;20432;-73
2022/09/14 06:36:08;;;;;;;0.60;0.60;;;;;;;;;;5044472;28;20815;-75
2022/09/14 06:38:35;;;;;;;0.93;0.90;;;;;;;;;;5044093;28;20432;-74
2022/09/14 06:41:04;;;;;;;1.80;0.68;;;;;;;;;;5048685;28;20436;-74
2022/09/14 06:43:32;;;;;;;0.52;0.52;;;;;;;;;;5045747;28;20483;-74
2022/09/14 06:46:03;;;;;;;0.43;0.43;;;;;;;;;;5050066;28;20433;-74
2022/09/14 06:48:33;;;;;;;0.60;0.60;;;;;;;;;;5050055;28;20440;-74
2022/09/14 06:51:00;;;;;;;0.63;0.63;;;;;;;;;;5047231;28;20425;-74
2022/09/14 06:53:30;;;;;;;0.75;0.75;;;;;;;;;;5055760;28;20466;-74
2022/09/14 06:55:58;;;;;;;0.88;0.88;;;;;;;;;;5048490;28;20461;-74
2022/09/14 06:58:25;;;;;;;1.52;0.80;;;;;;;;;;5048203;28;20922;-74
2022/09/14 07:00:52;;;;;;;0.60;0.60;;;;;;;;;;5044791;28;20441;-74
2022/09/14 07:03:20;;;;;;;0.55;0.55;;;;;;;;;;5053364;28;20442;-74
2022/09/14 07:05:47;;;;;;;0.60;0.60;;;;;;;;;;5046782;28;20895;-74
2022/09/14 07:08:14;;;;;;;2.40;0.80;;;;;;;;;;5050175;28;20438;-74
2022/09/14 07:10:42;;;;;;;0.43;0.43;;;;;;;;;;5050051;28;20895;-74
2022/09/14 07:13:10;;;;;;;0.60;0.60;;;;;;;;;;5035382;28;21115;-74
2022/09/14 07:15:40;;;;;;;0.90;0.90;;;;;;;;;;5047707;28;21243;-72
2022/09/14 07:18:07;;;;;;;0.60;0.60;;;;;;;;;;5047505;28;20479;-71
2022/09/14 07:20:34;;;;;;;0.50;0.50;;;;;;;;;;5029511;28;20435;-71
2022/09/14 07:23:01;;;;;;;0.70;0.70;;;;;;;;;;5048799;28;20942;-72
2022/09/14 07:25:28;;;;;;;0.90;0.90;;;;;;;;;;5048192;28;20417;-74
2022/09/14 07:27:55;;;;;;;0.63;0.63;;;;;;;;;;5046126;28;20430;-72
2022/09/14 07:30:25;;;;;;;0.63;0.63;;;;;;;;;;5046567;28;20425;-72
2022/09/14 07:32:52;;;;;;;0.60;0.60;;;;;;;;;;5050350;28;20429;-72
2022/09/14 07:35:20;;;;;;;1.20;0.70;;;;;;;;;;5042424;28;20503;-72
2022/09/14 07:37:47;;;;;;;0.77;0.77;;;;;;;;;;5043280;28;20435;-71
2022/09/14 07:40:14;;;;;;;0.90;0.90;;;;;;;;;;5047849;28;20433;-71
2022/09/14 07:42:44;;;;;;;0.80;0.80;;;;;;;;;;5043572;28;20437;-72
2022/09/14 07:45:11;;;;;;;1.90;0.73;;;;;;;;;;5044582;28;20464;-71
2022/09/14 07:47:38;;;;;;;1.00;0.73;;;;;;;;;;5046671;28;20436;-71
2022/09/14 07:50:05;;;;;;;0.55;0.55;;;;;;;;;;5049736;28;20842;-72
2022/09/14 07:52:35;;;;;;;0.70;0.63;;;;;;;;;;5049532;28;20421;-72
2022/09/14 07:55:06;;;;;;;0.73;0.73;;;;;;;;;;5045507;28;20822;-72
2022/09/14 07:57:33;;;;;;;0.80;0.80;;;;;;;;;;5048945;28;20429;-73
2022/09/14 08:00:22;;;;;;;0.60;0.60;;;;;;;;;;5043586;28;20440;-72
2022/09/14 08:02:54;;;;;;;0.68;0.63;;;;;;;;;;5044819;28;20447;-72
2022/09/14 08:05:21;;;;;;;1.30;0.60;;;;;;;;;;5047519;28;20461;-72
2022/09/14 08:07:53;;;;;;;0.85;0.77;;;;;;;;;;5041124;28;20440;-71
2022/09/14 08:10:26;;;;;;;1.00;0.70;;;;;;;;;;5043458;28;20436;-71
2022/09/14 08:12:56;;;;;;;0.60;0.60;;;;;;;;;;5053526;28;20425;-71
2022/09/14 08:15:23;;;;;;;0.77;0.77;;;;;;;;;;5060398;28;20799;-71
2022/09/14 08:17:54;;;;;;;0.50;0.50;;;;;;;;;;5056885;28;20467;-71
2022/09/14 08:20:22;;;;;;;0.70;0.70;;;;;;;;;;5057323;28;20969;-71
2022/09/14 08:22:49;;;;;;;0.60;0.60;;;;;;;;;;5057400;28;20467;-71
2022/09/14 08:25:19;;;;;;;0.80;0.80;;;;;;;;;;5059013;28;20436;-71
2022/09/14 08:27:48;;;;;;;0.80;0.80;;;;;;;;;;5053296;28;20429;-71
2022/09/14 08:30:15;;;;;;;1.23;0.93;;;;;;;;;;5032126;28;20429;-71
2022/09/14 08:32:44;;;;;;;0.52;0.52;;;;;;;;;;5046984;28;20842;-71
2022/09/14 08:35:14;;;;;;;0.93;0.93;;;;;;;;;;5058852;28;20429;-71
2022/09/14 08:37:41;;;;;;;0.93;0.93;;;;;;;;;;5049663;28;20491;-70
2022/09/14 08:40:10;;;;;;;0.98;0.90;;;;;;;;;;5048777;28;20429;-71
2022/09/14 08:42:38;;;;;;;0.88;0.88;;;;;;;;;;5033397;28;20427;-71
2022/09/14 08:45:10;;;;;;;1.10;1.00;;;;;;;;;;5041749;28;20787;-71
2022/09/14 08:47:38;;;;;;;1.48;0.80;;;;;;;;;;5047642;28;20433;-70
2022/09/14 08:50:17;;;;;;;0.80;0.80;;;;;;;;;;5039725;28;20429;-70
2022/09/14 08:52:47;;;;;;;1.02;1.02;;;;;;;;;;5048721;28;20429;-70
2022/09/14 08:55:14;;;;;;;0.80;0.80;;;;;;;;;;5047539;28;20433;-71
2022/09/14 08:57:56;;;;;;;1.80;1.10;;;;;;;;;;5050045;28;20472;-70
2022/09/14 09:00:25;;;;;;;0.87;0.87;;;;;;;;;;5048156;28;20455;-70
2022/09/14 09:02:52;;;;;;;0.80;0.80;;;;;;;;;;5045082;28;20429;-70
2022/09/14 09:05:25;;;;;;;0.82;0.82;;;;;;;;;;5042337;28;20514;-69
2022/09/14 09:08:00;;;;;;;0.75;0.75;;;;;;;;;;5049750;28;20489;-70
2022/09/14 09:10:27;;;;;;;1.00;1.00;;;;;;;;;;5042157;28;20441;-71
2022/09/14 09:12:56;;;;;;;0.77;0.77;;;;;;;;;;5049145;28;20949;-72
2022/09/14 09:15:40;;;;;;;0.60;0.60;;;;;;;;;;5049355;28;20491;-72
2022/09/14 09:18:10;;;;;;;0.77;0.77;;;;;;;;;;5049277;28;20425;-71
2022/09/14 09:20:46;;;;;;;1.00;1.00;;;;;;;;;;5049761;28;20461;-71
2022/09/14 09:23:24;;;;;;;0.80;0.80;;;;;;;;;;5046694;28;20451;-71
2022/09/14 09:26:03;;;;;;;0.80;0.80;;;;;;;;;;5048915;28;20433;-71
2022/09/14 09:28:30;;;;;;;0.93;0.93;;;;;;;;;;5048238;28;20441;-71
2022/09/14 09:31:00;;;;;;;0.90;0.90;;;;;;;;;;5047018;28;20516;-71
2022/09/14 09:33:28;;;;;;;0.70;0.70;;;;;;;;;;5048577;28;20444;-71
2022/09/14 09:35:56;;;;;;;0.85;0.85;;;;;;;;;;5048844;28;20428;-72
2022/09/14 09:38:26;;;;;;;0.70;0.70;;;;;;;;;;5043757;28;21081;-71
2022/09/14 09:40:53;;;;;;;0.90;0.90;;;;;;;;;;5034814;28;20548;-71
2022/09/14 09:43:20;;;;;;;1.00;1.00;;;;;;;;;;5039982;28;20436;-71
2022/09/14 09:46:11;;;;;;;1.00;1.00;;;;;;;;;;5046759;28;20479;-72
2022/09/14 09:48:43;;;;;;;0.90;0.90;;;;;;;;;;5049230;28;20487;-72
2022/09/14 09:51:30;;;;;;;0.85;0.70;;;;;;;;;;5065643;28;20431;-71
2022/09/14 09:54:02;;;;;;;0.70;0.70;;;;;;;;;;5057605;28;20481;-71
2022/09/14 09:56:35;;;;;;;1.00;1.00;;;;;;;;;;5038641;28;20495;-70
2022/09/14 09:59:20;;;;;;;0.93;0.93;;;;;;;;;;5047780;28;20436;-71
2022/09/14 10:01:49;;;;;;;0.95;0.95;;;;;;;;;;5045496;28;20523;-69
2022/09/14 10:04:18;;;;;;;0.95;0.95;;;;;;;;;;5043518;28;20439;-69
2022/09/14 10:06:53;;;;;;;0.98;0.90;;;;;;;;;;5050247;28;20508;-69
2022/09/14 10:09:26;;;;;;;0.90;0.90;;;;;;;;;;5041075;28;20620;-69
2022/09/14 10:12:02;;;;;;;0.95;0.95;;;;;;;;;;5052027;28;21088;-69
2022/09/14 10:14:32;;;;;;;0.80;0.80;;;;;;;;;;5052491;28;20433;-69
2022/09/14 10:17:06;;;;;;;0.80;0.80;;;;;;;;;;5052644;28;20437;-69
2022/09/14 10:19:34;;;;;;;1.00;0.90;;;;;;;;;;5048364;28;20454;-69
2022/09/14 10:22:04;;;;;;;0.90;0.90;;;;;;;;;;5051382;28;20465;-69
2022/09/14 10:24:34;;;;;;;0.70;0.70;;;;;;;;;;5046699;28;20429;-69
2022/09/14 10:27:01;;;;;;;0.80;0.80;;;21.10;99.90;;;;;;5050714;28;20464;-69
2022/09/14 10:29:42;;;;;;;0.98;0.98;;;22.50;99.90;;;;;;5029907;28;20487;-66
2022/09/14 10:32:22;;;;;;;0.95;0.95;;;22.50;99.90;;;;;;5049353;28;20428;-69
2022/09/14 10:34:50;;;;;;;0.80;0.80;;;22.70;99.90;;;;;;5050508;28;20433;-69
2022/09/14 10:37:41;;;;;;;0.63;0.63;;;23.30;99.90;;;;;;5032646;28;20421;-66
2022/09/14 10:40:16;;;;;;;1.00;1.00;;;22.90;99.90;;;;;;5045811;28;20429;-66
2022/09/14 10:43:01;;;;;;;0.90;0.90;;;23.10;99.90;;;;;;5048715;28;20444;-67
2022/09/14 10:45:37;;;;;;;0.93;0.93;;;22.90;99.90;;;;;;5049965;28;20448;-67
2022/09/14 10:48:15;;;;;;;0.80;0.80;;;22.40;99.90;;;;;;5047520;28;20436;-67
2022/09/14 10:51:10;;;;;;;0.60;0.60;;;21.60;99.90;;;;;;5044832;28;20430;-67
2022/09/14 10:54:11;;;;;;;0.82;0.82;;;21.40;99.90;;;;;;5044587;28;20425;-67
2022/09/14 10:57:11;;;;;;;0.90;0.90;;;21.60;99.90;;;;;;5046431;28;20528;-67
2022/09/14 10:59:50;;;;;;;0.60;0.60;;;22.00;99.90;;;;;;5049640;28;20877;-67
2022/09/14 11:02:25;;;;;;;0.80;0.80;;;22.50;99.90;;;;;;5046586;28;20513;-67
2022/09/14 11:05:07;;;;;;;0.70;0.70;;;22.80;99.90;;;;;;5033284;28;20432;-67
2022/09/14 11:07:54;;;;;;;0.85;0.85;;;23.20;99.90;;;;;;5044524;28;20459;-67
2022/09/14 11:10:26;;;;;;;0.80;0.80;;;23.50;99.90;;;;;;5047833;28;20425;-66
2022/09/14 11:13:08;;;;;;;0.75;0.75;;;23.80;99.90;;;;;;5046865;28;20491;-66
2022/09/14 11:15:43;;;;;;;0.65;0.65;;;24.10;99.90;;;;;;5032524;28;20439;-66
2022/09/14 11:18:13;;;;;;;0.90;0.90;;;24.20;99.90;;;;;;5038199;28;20435;-67
2022/09/14 11:21:04;;;;;;;0.60;0.60;;;24.30;99.90;;;;;;5050035;28;20433;-66
2022/09/14 11:23:49;;;;;;;0.93;0.93;;;24.20;99.90;;;;;;5046886;28;20483;-66
2022/09/14 11:26:32;;;;;;;1.08;0.98;;;24.10;99.90;;;;;;5048687;28;20434;-66
2022/09/14 11:29:04;;;;;;;0.73;0.73;;;24.30;99.90;;;;;;5051447;28;20491;-66
2022/09/14 11:31:36;;;;;;;0.80;0.80;;;24.50;99.90;;;;;;5051780;28;20432;-66
2022/09/14 11:34:12;;;;;;;1.00;0.90;;;24.20;99.90;;;;;;5048022;28;20435;-66
2022/09/14 11:36:51;;;;;;;0.73;0.73;;;24.30;99.90;;;;;;5044886;28;20478;-67
2022/09/14 11:39:24;;;;;;;0.82;0.82;;;24.20;99.90;;;;;;5047307;28;20460;-66
2022/09/14 11:42:00;;;;;;;1.00;1.00;;;24.10;99.90;;;;;;5048393;28;20425;-68
2022/09/14 11:44:35;;;;;;;0.98;0.80;;;24.10;99.90;;;;;;5046636;28;20485;-67
2022/09/14 11:47:07;;;;;;;1.10;1.00;;;24.20;99.90;;;;;;5046816;28;20437;-66
2022/09/14 11:49:59;;;;;;;1.10;1.10;;;24.10;99.90;;;;;;5050808;28;20429;-67
2022/09/14 11:52:31;;;;;;;0.82;0.82;;;24.10;99.90;;;;;;5044301;28;20453;-66
2022/09/14 11:54:59;;;;;;;0.80;0.60;;;24.30;99.90;;;;;;5042051;28;20441;-65
2022/09/14 11:57:32;;;;;;;0.90;0.90;;;24.60;99.90;;;;;;5030126;28;20425;-66
2022/09/14 12:00:08;;;;;;;0.77;0.77;;;24.70;99.90;;;;;;5048324;28;20631;-65
2022/09/14 12:02:35;;;;;;;0.70;0.70;;;24.80;99.90;;;;;;5040098;28;20494;-66
2022/09/14 12:05:09;;;;;;;0.82;0.82;;;24.80;99.90;;;;;;5042970;28;20472;-66
2022/09/14 12:07:38;;;;;;;0.82;0.82;;;24.90;99.90;;;;;;5049594;28;20433;-66
2022/09/14 12:10:14;;;;;;;0.90;0.90;;;24.50;99.90;;;;;;5047887;28;20437;-65
2022/09/14 12:12:50;;;;;;;0.68;0.68;;;24.10;99.90;;;;;;5032220;28;20429;-65
2022/09/14 12:15:25;;;;;;;0.77;0.77;;;24.10;99.90;;;;;;5047030;28;20425;-66
2022/09/14 12:18:04;;;;;;;0.63;0.63;;;24.00;99.90;;;;;;5029042;28;20443;-65
2022/09/14 12:20:37;;;;;;;1.02;0.90;;;24.00;99.90;;;;;;5043857;28;20460;-65
2022/09/14 12:23:23;;;;;;;0.70;0.70;;;24.10;99.90;;;;;;5044425;28;20468;-66
2022/09/14 12:26:09;;;;;;;0.90;0.90;;;23.70;99.90;;;;;;5043004;28;20437;-65
2022/09/14 12:28:36;;;;;;;0.90;0.90;;;23.10;99.90;;;;;;5032142;28;20439;-65
2022/09/14 12:31:03;;;;;;;0.80;0.80;;;22.80;99.90;;;;;;5038841;28;20476;-65
2022/09/14 12:33:32;;;;;;;1.00;0.90;;;22.80;99.90;;;;;;5039648;28;20509;-66
2022/09/14 12:36:11;;;;;;;0.93;0.93;;;22.70;99.90;;;;;;5037295;28;20468;-67
2022/09/14 12:39:01;;;;;;;0.90;0.90;;;22.70;99.90;;;;;;5030397;28;20429;-67
2022/09/14 12:41:28;;;;;;;1.77;0.95;;;22.80;99.90;;;;;;5021031;28;20440;-66
2022/09/14 12:43:55;;;;;;;1.10;1.10;;;22.80;99.90;;;;;;5028915;28;20427;-67
2022/09/14 12:46:21;;;;;;;0.70;0.70;;;22.80;99.90;;;;;;5039745;28;22739;-66
2022/09/14 12:48:57;;;;;;;1.25;1.15;;;22.90;99.90;;;;;;5045954;28;20425;-66
2022/09/14 12:51:34;;;;;;;0.80;0.80;;;23.00;99.90;;;;;;5028852;28;20435;-66
2022/09/14 12:54:07;;;;;;;0.90;0.90;;;22.80;99.90;;;;;;5048157;28;20437;-66
2022/09/14 12:56:42;;;;;;;1.00;1.00;;;22.70;99.90;;;;;;5041794;28;20437;-67
2022/09/14 12:59:20;;;;;;;1.00;0.95;;;22.60;99.90;;;;;;5044637;28;20429;-67
2022/09/14 13:02:10;;;;;;;1.10;1.08;;;22.70;99.90;;;;;;5041083;28;20437;-65
2022/09/14 13:04:38;;;;;;;1.25;1.20;;;23.00;99.90;;;;;;5044237;28;20536;-65
2022/09/14 13:07:14;;;;;;;1.00;1.00;;;23.20;99.90;;;;;;5046323;28;20445;-65
2022/09/14 13:09:47;;;;;;;1.10;1.00;;;23.30;99.90;;;;;;5044716;28;20463;-64
2022/09/14 13:12:31;;;;;;;0.80;0.80;;;23.00;99.90;;;;;;5040241;28;20429;-65
2022/09/14 13:15:07;;;;;;;0.73;0.73;;;22.80;99.90;;;;;;5046996;28;20440;-65
2022/09/14 13:17:33;;;;;;;1.30;1.20;;;22.70;99.90;;;;;;5040244;28;20436;-65
2022/09/14 13:20:04;;;;;;;1.75;1.05;;;22.80;99.90;;;;;;5039354;28;20482;-65
2022/09/14 13:22:32;;;;;;;1.00;1.00;;;23.10;99.90;;;;;;5041577;28;20429;-65
2022/09/14 13:25:02;;;;;;;0.98;0.95;;;23.20;99.90;;;;;;5045566;28;20433;-65
2022/09/14 13:27:33;;;;;;;1.00;1.00;;;23.00;99.90;;;;;;5047319;28;20490;-66
2022/09/14 13:30:10;;;;;;;1.35;1.13;;;22.60;99.90;;;;;;5039495;28;20456;-66
2022/09/14 13:32:43;;;;;;;0.90;0.90;;;22.40;99.90;;;;;;5042299;28;20429;-65
2022/09/14 13:35:26;;;;;;;1.05;1.05;;;22.40;99.90;;;;;;5042060;28;20902;-65
2022/09/14 13:37:52;;;;;;;1.30;1.20;;;22.60;99.90;;;;;;5039714;28;20441;-65
2022/09/14 13:40:29;;;;;;;1.00;1.00;;;22.60;99.90;;;;;;5043847;28;20433;-65
2022/09/14 13:42:58;;;;;;;1.38;1.27;;;22.50;99.90;;;;;;5047939;28;20972;-65
2022/09/14 13:45:24;;;;;;;1.33;1.23;;;22.00;99.90;;;;;;5045453;28;20487;-65
2022/09/14 13:47:52;;;;;;;1.40;1.00;;;21.50;99.90;;;;;;5042547;28;20437;-66
2022/09/14 13:50:22;;;;;;;1.10;1.10;;;20.90;99.90;;;;;;5040012;28;20823;-66
2022/09/14 13:52:50;;;;;;;1.00;1.00;;;20.40;99.90;;;;;;5040828;28;20708;-66
2022/09/14 13:55:32;;;;;;;2.10;1.17;;;20.10;99.90;;;;;;5049973;28;20485;-67
2022/09/14 13:58:08;;;;;;;1.52;1.40;;;19.80;99.90;;;;;;5046202;28;20808;-67
2022/09/14 14:01:00;;;;;;;1.38;1.27;;;19.70;99.90;;;;;;5048023;28;20429;-67
2022/09/14 14:03:46;;;;;;;1.35;1.33;;;19.80;99.90;;;;;;5060466;28;20429;-67
2022/09/14 14:06:33;;;;;;;1.20;1.13;;;20.00;99.90;;;;;;5059352;28;20433;-67
2022/09/14 14:09:09;;;;;;;1.33;1.23;;;20.20;99.90;;;;;;5027483;28;20449;-67
2022/09/14 14:11:44;;;;;;;1.33;1.30;;;20.40;99.90;;;;;;5046410;28;20441;-67
2022/09/14 14:14:17;;;;;;;1.63;1.52;;;20.40;99.90;;;;;;5047484;28;20468;-67
2022/09/14 14:17:12;;;;;;;1.20;1.20;;;20.40;99.90;;;;;;5028255;28;20484;-67
2022/09/14 14:19:39;;;;;;;1.20;1.20;;;20.30;99.90;;;;;;5047755;28;20440;-67
2022/09/14 14:22:17;;;;;;;1.60;1.20;;;20.30;99.90;;;;;;5020274;28;20437;-67
2022/09/14 14:24:47;;;;;;;1.60;1.25;;;20.20;99.90;;;;;;5043452;28;20930;-67
2022/09/14 14:27:37;;;;;;;2.90;1.35;;;20.20;99.90;;;;;;5038972;28;20512;-67
2022/09/14 14:30:12;;;;;;;1.17;1.08;;;20.10;99.90;;;;;;5043561;28;20429;-67
2022/09/14 14:32:39;;;;;;;1.07;1.07;;;20.10;99.90;;;;;;5041068;28;20433;-67
2022/09/14 14:35:24;;;;;;;1.20;1.10;;;20.20;99.90;;;;;;5045005;28;20479;-69